Time;durP1;ratioP1;P1;durP2;ratioP2;P2;SDS_P1;SDS_P2;PMS_P1;PMS_P2;Temp;Humidity;BMP_temperature;BMP_pressure;BME280_temperature;BME280_humidity;BME280_pressure;Samples;Min_cycle;Max_cycle;Signal;HPM_P1;HPM_P2
2020/12/07 00:00:26;;;;;;;21.83;16.00;;;;;;;1.65;84.89;98131.53;125340;1098;65124;-82
2020/12/07 00:02:58;;;;;;;21.73;15.37;;;;;;;1.63;85.07;98133.36;124914;1098;65239;-83
2020/12/07 00:05:24;;;;;;;21.30;15.93;;;;;;;1.61;85.63;98131.75;125222;1098;65223;-81
2020/12/07 00:07:51;;;;;;;23.80;16.60;;;;;;;1.60;85.12;98115.12;125332;1098;65226;-80
2020/12/07 00:10:18;;;;;;;19.70;16.80;;;;;;;1.57;85.17;98120.52;125299;1098;65224;-80
2020/12/07 00:12:45;;;;;;;21.20;15.57;;;;;;;1.53;85.55;98105.84;125226;1098;65150;-80
2020/12/07 00:15:12;;;;;;;22.43;17.13;;;;;;;1.51;85.99;98113.77;125227;1098;65319;-80
2020/12/07 00:17:39;;;;;;;20.53;14.90;;;;;;;1.49;85.82;98107.72;124881;1098;65240;-81
2020/12/07 00:20:09;;;;;;;19.00;14.57;;;;;;;1.46;86.44;98099.99;125318;1098;65175;-80
2020/12/07 00:22:36;;;;;;;19.97;14.57;;;;;;;1.46;86.03;98102.61;125346;1098;65724;-80
2020/12/07 00:25:05;;;;;;;21.20;16.27;;;;;;;1.44;85.72;98100.98;125263;1098;65204;-80
2020/12/07 00:27:33;;;;;;;21.60;16.40;;;;;;;1.43;85.46;98097.51;125338;1098;65300;-83
2020/12/07 00:30:01;;;;;;;22.00;16.43;;;;;;;1.43;86.10;98089.63;125216;1098;65140;-81
2020/12/07 00:32:28;;;;;;;19.77;14.90;;;;;;;1.40;86.87;98105.52;125263;1098;65239;-80
2020/12/07 00:34:55;;;;;;;20.43;15.43;;;;;;;1.39;86.33;98092.45;125246;1098;65137;-81
2020/12/07 00:37:23;;;;;;;19.87;15.90;;;;;;;1.38;86.71;98104.73;125243;1098;65143;-82
2020/12/07 00:39:50;;;;;;;19.97;15.37;;;;;;;1.37;86.59;98118.79;125263;1098;65146;-82
2020/12/07 00:42:16;;;;;;;21.87;15.90;;;;;;;1.37;86.55;98110.91;125231;1098;65172;-82
2020/12/07 00:44:43;;;;;;;19.57;15.07;;;;;;;1.38;87.13;98098.64;125263;1098;65222;-81
2020/12/07 00:47:10;;;;;;;19.23;15.30;;;;;;;1.38;86.90;98101.27;125267;1098;65137;-82
2020/12/07 00:49:38;;;;;;;17.77;14.13;;;;;;;1.37;85.99;98112.66;124929;1099;65141;-82
2020/12/07 00:52:06;;;;;;;18.13;14.60;;;;;;;1.37;86.69;98089.03;125329;1098;65105;-82
2020/12/07 00:54:33;;;;;;;19.63;14.57;;;;;;;1.37;86.76;98086.41;125335;1098;65155;-82
2020/12/07 00:57:01;;;;;;;20.93;16.43;;;;;;;1.34;86.63;98076.05;125327;1098;65146;-82
2020/12/07 00:59:28;;;;;;;20.67;15.33;;;;;;;1.29;86.37;98077.12;125280;1098;65134;-82
2020/12/07 01:01:57;;;;;;;22.00;15.63;;;;;;;1.29;86.37;98084.12;125197;1098;65229;-82
2020/12/07 01:04:24;;;;;;;20.83;15.53;;;;;;;1.28;86.33;98083.28;125353;1098;65269;-82
2020/12/07 01:06:50;;;;;;;18.15;14.40;;;;;;;1.27;86.09;98076.33;125275;1098;65175;-82
2020/12/07 01:09:22;;;;;;;21.07;15.03;;;;;;;1.26;86.29;98069.39;125297;1098;65134;-82
2020/12/07 01:11:57;;;;;;;17.83;14.93;;;;;;;1.27;86.29;98071.08;125282;1098;65146;-82
2020/12/07 01:14:24;;;;;;;21.10;15.03;;;;;;;1.27;86.95;98067.61;124947;1099;65224;-82
2020/12/07 01:16:50;;;;;;;20.47;15.30;;;;;;;1.25;86.63;98067.67;125224;1099;65285;-82
2020/12/07 01:19:18;;;;;;;18.23;14.07;;;;;;;1.24;86.58;98063.35;125231;1098;65191;-82
2020/12/07 01:21:44;;;;;;;17.80;14.00;;;;;;;1.25;87.27;98075.55;125242;1098;65219;-82
2020/12/07 01:24:11;;;;;;;19.43;13.83;;;;;;;1.27;87.14;98068.46;124911;1098;65211;-82
2020/12/07 01:26:38;;;;;;;18.50;13.97;;;;;;;1.28;86.78;98075.41;125224;1099;65210;-82
2020/12/07 01:29:05;;;;;;;17.03;13.43;;;;;;;1.30;87.28;98073.56;125210;1098;65147;-82
2020/12/07 01:31:32;;;;;;;17.33;13.90;;;;;;;1.33;86.51;98071.73;125233;1098;65150;-82
2020/12/07 01:33:58;;;;;;;18.57;13.90;;;;;;;1.31;87.11;98059.51;125267;1098;65181;-82
2020/12/07 01:36:25;;;;;;;18.23;14.00;;;;;;;1.32;86.89;98039.39;125222;1098;65219;-81
2020/12/07 01:38:52;;;;;;;18.83;14.07;;;;;;;1.29;86.49;98027.26;125258;1098;65229;-81
2020/12/07 01:41:19;;;;;;;17.93;13.80;;;;;;;1.28;86.94;98020.28;125236;1099;65252;-80
2020/12/07 01:43:45;;;;;;;19.40;13.43;;;;;;;1.28;86.28;98022.91;125252;1098;65101;-81
2020/12/07 01:46:19;;;;;;;18.63;13.47;;;;;;;1.27;86.90;98023.00;125253;1099;65179;-81
2020/12/07 01:48:47;;;;;;;18.17;13.23;;;;;;;1.27;86.77;98023.84;125259;1099;65118;-81
2020/12/07 01:51:15;;;;;;;18.43;13.23;;;;;;;1.26;87.01;98022.15;125226;1099;65163;-80
2020/12/07 01:53:43;;;;;;;18.77;14.37;;;;;;;1.25;87.00;98028.30;125281;1098;65271;-80
2020/12/07 01:56:13;;;;;;;17.33;13.50;;;;;;;1.24;86.92;98029.23;125379;1098;65197;-81
2020/12/07 01:58:41;;;;;;;17.47;13.10;;;;;;;1.23;87.03;98029.29;125245;1098;65190;-83
2020/12/07 02:01:08;;;;;;;18.87;13.93;;;;;;;1.23;86.69;98034.54;125355;1098;65130;-82
2020/12/07 02:03:34;;;;;;;18.90;13.73;;;;;;;1.23;87.09;98022.27;125260;1098;65123;-82
2020/12/07 02:06:01;;;;;;;16.33;13.13;;;;;;;1.22;86.42;98015.32;124856;1098;65250;-83
2020/12/07 02:08:27;;;;;;;16.77;13.63;;;;;;;1.23;86.85;98010.92;125202;1098;65230;-82
2020/12/07 02:10:54;;;;;;;19.73;13.83;;;;;;;1.24;87.04;98010.02;125256;1098;65153;-82
2020/12/07 02:13:20;;;;;;;18.97;14.23;;;;;;;1.24;87.03;97989.02;125259;1098;65140;-82
2020/12/07 02:15:47;;;;;;;18.45;12.80;;;;;;;1.24;86.98;97971.50;125357;1099;65147;-81
2020/12/07 02:18:13;;;;;;;15.27;11.67;;;;;;;1.26;86.99;97966.16;125247;1099;65293;-82
2020/12/07 02:20:46;;;;;;;19.90;12.85;;;;;;;1.28;86.42;97949.42;125249;1098;65144;-82
2020/12/07 02:23:13;;;;;;;17.25;13.50;;;;;;;1.30;86.89;97962.48;125285;1098;65130;-82
2020/12/07 02:25:39;;;;;;;15.47;12.63;;;;;;;1.31;87.05;97986.02;125239;1098;65126;-81
2020/12/07 02:28:06;;;;;;;14.40;12.20;;;;;;;1.33;86.64;98004.33;125244;1098;65243;-82
2020/12/07 02:30:32;;;;;;;14.90;11.37;;;;;;;1.33;86.57;98000.86;125258;1098;65278;-82
2020/12/07 02:32:58;;;;;;;15.63;12.40;;;;;;;1.33;86.75;97990.36;124893;1100;65137;-82
2020/12/07 02:35:25;;;;;;;13.83;11.70;;;;;;;1.31;86.49;97978.14;125290;1098;65096;-82
2020/12/07 02:37:51;;;;;;;16.10;12.30;;;;;;;1.30;86.69;97984.33;124894;1098;65247;-82
2020/12/07 02:40:18;;;;;;;15.57;12.27;;;;;;;1.30;86.84;97978.23;125247;1099;65234;-82
2020/12/07 02:42:44;;;;;;;13.87;11.00;;;;;;;1.27;86.61;97973.13;124872;1098;65221;-82
2020/12/07 02:45:16;;;;;;;17.67;12.50;;;;;;;1.29;86.73;97974.77;125322;1098;65137;-82
2020/12/07 02:47:43;;;;;;;15.40;12.13;;;;;;;1.28;86.56;97980.91;125383;1099;65134;-82
2020/12/07 02:50:12;;;;;;;14.97;11.70;;;;;;;1.27;86.84;97991.50;125198;1098;65162;-82
2020/12/07 02:52:38;;;;;;;17.90;12.87;;;;;;;1.26;86.73;98024.77;125265;1098;65201;-82
2020/12/07 02:55:07;;;;;;;14.85;11.35;;;;;;;1.27;86.62;98028.24;125201;1098;65280;-82
2020/12/07 02:57:33;;;;;;;13.70;10.87;;;;;;;1.29;86.82;98034.25;124863;1100;65152;-82
2020/12/07 03:00:00;;;;;;;15.20;11.00;;;;;;;1.29;86.60;98043.00;125261;1098;65294;-82
2020/12/07 03:02:27;;;;;;;12.70;10.20;;;;;;;1.30;86.63;98044.70;125233;1098;65251;-82
2020/12/07 03:04:53;;;;;;;15.53;11.90;;;;;;;1.31;86.43;98043.77;125233;1098;65179;-82
2020/12/07 03:07:20;;;;;;;15.57;11.27;;;;;;;1.30;86.28;98031.57;124883;1098;65259;-82
2020/12/07 03:09:46;;;;;;;14.90;11.30;;;;;;;1.29;86.57;98021.13;125313;1099;65067;-82
2020/12/07 03:12:13;;;;;;;14.00;11.20;;;;;;;1.30;86.49;98028.10;124862;1098;65147;-82
2020/12/07 03:14:39;;;;;;;11.37;9.33;;;;;;;1.31;86.54;98014.89;125263;1098;65159;-82
2020/12/07 03:17:06;;;;;;;13.50;10.20;;;;;;;1.31;86.59;98012.27;125272;1098;65191;-82
2020/12/07 03:19:32;;;;;;;13.75;10.85;;;;;;;1.33;86.60;98006.96;125261;1099;65403;-82
2020/12/07 03:21:58;;;;;;;15.00;12.13;;;;;;;1.29;86.29;98001.02;125315;1098;65147;-82
2020/12/07 03:24:25;;;;;;;15.10;10.73;;;;;;;1.28;86.26;97995.81;124878;1100;65201;-82
2020/12/07 03:26:51;;;;;;;14.28;10.65;;;;;;;1.27;86.69;97986.25;125222;1099;65080;-83
2020/12/07 03:29:17;;;;;;;13.90;10.67;;;;;;;1.27;86.71;97984.47;125256;1098;65201;-82
2020/12/07 03:31:44;;;;;;;16.63;11.73;;;;;;;1.28;87.11;98001.06;125281;1098;65143;-82
2020/12/07 03:34:11;;;;;;;17.60;11.83;;;;;;;1.30;86.64;98002.70;125274;1098;65220;-82
2020/12/07 03:36:40;;;;;;;17.85;11.65;;;;;;;1.31;86.09;97996.52;125235;1098;65139;-82
2020/12/07 03:39:08;;;;;;;16.50;11.83;;;;;;;1.30;86.31;97997.45;125255;1098;65229;-82
2020/12/07 03:41:34;;;;;;;15.35;11.65;;;;;;;1.30;86.11;97996.61;125249;1098;65195;-82
2020/12/07 03:44:01;;;;;;;15.90;11.90;;;;;;;1.29;86.70;98001.02;125274;1098;65243;-82
2020/12/07 03:46:27;;;;;;;14.40;10.70;;;;;;;1.29;86.31;97992.26;125255;1098;65153;-82
2020/12/07 03:48:54;;;;;;;19.43;13.50;;;;;;;1.29;86.57;97990.52;125266;1098;65230;-82
2020/12/07 03:51:20;;;;;;;21.83;14.57;;;;;;;1.27;86.06;97994.97;125265;1098;65236;-82
2020/12/07 03:53:47;;;;;;;17.67;12.57;;;;;;;1.27;86.19;97994.97;124928;1100;65127;-82
2020/12/07 03:56:13;;;;;;;16.27;12.20;;;;;;;1.26;85.97;98005.53;124899;1100;65282;-83
2020/12/07 03:58:40;;;;;;;18.50;12.47;;;;;;;1.24;86.30;98008.23;125312;1098;65166;-83
2020/12/07 04:01:09;;;;;;;19.60;13.63;;;;;;;1.25;86.32;98006.45;125368;1098;65173;-84
2020/12/07 04:03:37;;;;;;;14.70;11.50;;;;;;;1.28;86.31;97993.19;125250;1098;65140;-82
2020/12/07 04:06:14;;;;;;;15.90;11.27;;;;;;;1.28;86.46;98015.03;125231;1098;65201;-80
2020/12/07 04:08:41;;;;;;;14.30;10.85;;;;;;;1.29;86.40;98021.13;125236;1098;65301;-81
2020/12/07 04:11:07;;;;;;;15.23;11.83;;;;;;;1.28;85.95;98006.31;124862;1099;65258;-80
2020/12/07 04:13:34;;;;;;;14.57;11.83;;;;;;;1.28;86.32;98011.56;125352;1098;65182;-81
2020/12/07 04:16:04;;;;;;;14.53;11.17;;;;;;;1.28;86.28;98017.66;125263;1098;65166;-81
2020/12/07 04:18:30;;;;;;;;;;;;;;;1.30;86.05;98012.35;124854;1100;65140;-81
2020/12/07 04:21:00;;;;;;;15.00;11.37;;;;;;;1.34;86.33;98008.65;125254;1098;65188;-82
2020/12/07 04:23:31;;;;;;;16.50;11.87;;;;;;;1.35;86.55;98002.50;125269;1098;65144;-80
2020/12/07 04:25:59;;;;;;;15.05;12.10;;;;;;;1.39;86.15;98006.67;125350;1098;65241;-81
2020/12/07 04:28:26;;;;;;;18.33;13.43;;;;;;;1.42;86.17;98010.93;125230;1098;65250;-81
2020/12/07 04:30:53;;;;;;;14.43;10.57;;;;;;;1.43;85.78;98007.41;125278;1099;65207;-81
2020/12/07 04:33:20;;;;;;;15.55;11.10;;;;;;;1.45;85.80;97992.41;124878;1099;65166;-81
2020/12/07 04:35:47;;;;;;;18.53;12.07;;;;;;;1.47;85.72;98007.17;125256;1099;65220;-81
2020/12/07 04:38:13;;;;;;;23.67;18.57;;;;;;;1.51;85.75;97997.39;125339;1098;65124;-81
2020/12/07 04:40:40;;;;;;;12.57;10.43;;;;;;;1.56;85.75;97982.28;125327;1099;65208;-80
2020/12/07 04:43:07;;;;;;;16.10;14.23;;;;;;;1.58;86.19;97985.69;125321;1098;65143;-81
2020/12/07 04:45:33;;;;;;;15.57;12.17;;;;;;;1.61;86.12;97980.29;125299;1098;65130;-81
2020/12/07 04:48:01;;;;;;;16.27;12.83;;;;;;;1.63;85.60;97973.16;124840;1098;65200;-81
2020/12/07 04:50:32;;;;;;;19.47;15.13;;;;;;;1.64;85.50;97981.92;125270;1098;65236;-81
2020/12/07 04:52:59;;;;;;;22.70;16.45;;;;;;;1.65;85.61;97959.98;125246;1098;65082;-81
2020/12/07 04:55:28;;;;;;;21.67;14.63;;;;;;;1.66;86.04;97956.41;124903;1099;65153;-80
2020/12/07 04:57:56;;;;;;;16.45;12.25;;;;;;;1.69;85.60;97956.30;124874;1098;65221;-81
2020/12/07 05:00:25;;;;;;;38.20;22.40;;;;;;;1.70;85.69;97976.37;125262;1098;65233;-81
2020/12/07 05:02:53;;;;;;;17.67;12.13;;;;;;;1.70;85.38;97955.36;124893;1099;65281;-82
2020/12/07 05:05:21;;;;;;;17.75;13.15;;;;;;;1.70;85.28;97971.12;125307;1098;65213;-81
2020/12/07 05:07:49;;;;;;;24.57;18.23;;;;;;;1.71;85.48;97983.31;125246;1098;65137;-81
2020/12/07 05:10:38;;;;;;;19.15;13.70;;;;;;;1.71;85.30;97980.69;124946;1099;65200;-81
2020/12/07 05:13:53;;;;;;;20.53;13.90;;;;;;;1.72;85.36;97978.00;125327;1098;65214;-82
2020/12/07 05:15:53;;;;;;;20.63;14.53;;;;;;;1.73;85.50;97969.18;125124;1098;65131;-81
2020/12/07 05:18:19;;;;;;;15.53;12.20;;;;;;;1.73;85.58;97974.44;125288;1098;65182;-81
2020/12/07 05:20:45;;;;;;;19.27;13.60;;;;;;;1.71;85.32;97986.81;124885;1098;65146;-81
2020/12/07 05:23:16;;;;;;;17.00;12.60;;;;;;;1.71;85.10;97980.69;125206;1098;65157;-82
2020/12/07 05:25:47;;;;;;;15.50;11.97;;;;;;;1.68;85.63;97973.80;125326;1099;65179;-82
2020/12/07 05:28:26;;;;;;;16.77;12.50;;;;;;;1.68;85.22;97981.68;125254;1098;65208;-82
2020/12/07 05:30:53;;;;;;;18.85;13.65;;;;;;;1.69;85.20;97990.44;125318;1099;65235;-82
2020/12/07 05:33:19;;;;;;;13.93;11.57;;;;;;;1.69;85.38;97975.52;125356;1098;65134;-82
2020/12/07 05:35:53;;;;;;;15.97;11.70;;;;;;;1.72;85.38;97995.54;125307;1098;65294;-82
2020/12/07 05:38:20;;;;;;;17.83;12.23;;;;;;;1.74;85.42;97988.45;125299;1098;65153;-82
2020/12/07 05:40:47;;;;;;;15.40;11.03;;;;;;;1.75;85.41;97979.63;124875;1099;65163;-81
2020/12/07 05:43:13;;;;;;;15.67;11.60;;;;;;;1.77;85.14;97987.45;125340;1098;65144;-81
2020/12/07 05:45:41;;;;;;;36.97;22.80;;;;;;;1.78;85.19;97999.65;125229;1098;65204;-82
2020/12/07 05:48:10;;;;;;;15.13;10.77;;;;;;;1.78;84.88;97989.14;124901;1100;65115;-82
2020/12/07 05:50:43;;;;;;;21.37;16.15;;;;;;;1.77;85.17;97992.70;124931;1099;65329;-82
2020/12/07 05:53:10;;;;;;;13.87;10.73;;;;;;;1.77;84.90;97990.92;124892;1098;65249;-81
2020/12/07 05:55:37;;;;;;;13.20;9.30;;;;;;;1.79;84.84;97981.20;125233;1099;65185;-82
2020/12/07 05:58:09;;;;;;;21.00;15.20;;;;;;;1.80;84.98;97977.64;124954;1100;65151;-83
2020/12/07 06:00:37;;;;;;;16.47;12.47;;;;;;;1.80;84.74;97977.64;125396;1099;65227;-82
2020/12/07 06:03:06;;;;;;;15.85;12.60;;;;;;;1.79;84.78;97981.20;125214;1098;65240;-82
2020/12/07 06:05:33;;;;;;;13.23;10.27;;;;;;;1.79;85.15;97985.58;125209;1098;65185;-80
2020/12/07 06:08:24;;;;;;;13.13;9.73;;;;;;;1.81;85.09;97974.07;125326;1098;65124;-80
2020/12/07 06:11:12;;;;;;;14.30;9.80;;;;;;;1.83;85.00;97989.77;125301;1098;65155;-82
2020/12/07 06:13:39;;;;;;;13.17;9.87;;;;;;;1.87;84.87;97996.56;124873;1099;65224;-81
2020/12/07 06:16:07;;;;;;;14.67;11.10;;;;;;;1.89;84.87;97997.35;125215;1098;65144;-81
2020/12/07 06:18:35;;;;;;;12.10;10.07;;;;;;;1.91;84.36;98003.39;125223;1098;65137;-81
2020/12/07 06:21:01;;;;;;;12.57;9.07;;;;;;;1.91;84.36;97998.14;125265;1099;65146;-81
2020/12/07 06:23:33;;;;;;;13.03;10.60;;;;;;;1.93;84.51;97999.77;125371;1098;65232;-81
2020/12/07 06:26:01;;;;;;;14.27;9.83;;;;;;;1.97;84.09;98010.97;125225;1098;66841;-81
2020/12/07 06:28:38;;;;;;;13.83;9.67;;;;;;;2.02;84.25;98023.89;125251;1098;65262;-81
2020/12/07 06:31:05;;;;;;;13.33;10.27;;;;;;;2.06;84.35;98017.58;125244;1098;65233;-81
2020/12/07 06:33:40;;;;;;;11.17;9.00;;;;;;;2.07;84.01;98012.23;125341;1099;65096;-80
2020/12/07 06:36:31;;;;;;;11.83;9.57;;;;;;;2.10;84.16;98019.97;125238;1098;65134;-81
2020/12/07 06:39:10;;;;;;;12.37;9.47;;;;;;;2.13;83.54;98042.62;125274;1098;65233;-81
2020/12/07 06:41:46;;;;;;;14.23;10.57;;;;;;;2.16;84.18;98042.50;124961;1100;65159;-82
2020/12/07 06:44:22;;;;;;;13.67;10.40;;;;;;;2.19;83.55;98039.72;125264;1098;65123;-82
2020/12/07 06:46:54;;;;;;;17.43;12.57;;;;;;;2.19;83.66;98043.19;125246;1098;65200;-82
2020/12/07 06:49:39;;;;;;;15.47;11.87;;;;;;;2.20;83.66;98044.03;125288;1098;65147;-82
2020/12/07 06:52:15;;;;;;;15.60;11.37;;;;;;;2.19;83.64;98045.81;125315;1098;65092;-82
2020/12/07 06:55:07;;;;;;;14.50;10.87;;;;;;;2.21;83.35;98043.09;125307;1099;65253;-82
2020/12/07 06:57:46;;;;;;;17.43;11.50;;;;;;;2.24;83.45;98042.97;125130;1098;65291;-83
2020/12/07 07:00:27;;;;;;;15.70;11.50;;;;;;;2.26;83.12;98070.02;125144;1099;65229;-82
2020/12/07 07:02:58;;;;;;;13.67;11.03;;;;;;;2.27;82.92;98063.85;124921;1099;65146;-82
2020/12/07 07:05:28;;;;;;;14.87;11.63;;;;;;;2.28;83.30;98051.55;125288;1098;65195;-82
2020/12/07 07:07:55;;;;;;;13.90;9.50;;;;;;;2.29;83.05;98055.87;125423;1098;65169;-82
2020/12/07 07:10:23;;;;;;;14.43;10.17;;;;;;;2.32;82.98;98072.37;125242;1098;65147;-82
2020/12/07 07:12:51;;;;;;;15.93;10.93;;;;;;;2.37;82.72;98067.74;125244;1098;65212;-82
2020/12/07 07:15:17;;;;;;;16.30;12.27;;;;;;;2.40;82.90;98064.95;125223;1099;65307;-82
2020/12/07 07:17:45;;;;;;;17.63;11.80;;;;;;;2.43;82.86;98063.95;125358;1099;65317;-82
2020/12/07 07:20:14;;;;;;;17.10;11.63;;;;;;;2.45;82.62;98061.23;125239;1098;65218;-83
2020/12/07 07:22:43;;;;;;;13.07;10.20;;;;;;;2.49;82.85;98078.58;125255;1098;65163;-82
2020/12/07 07:30:24;;;;;;;16.17;11.80;;;;;;;2.57;81.98;98082.53;125275;1098;65259;-82
2020/12/07 07:32:53;;;;;;;20.17;12.93;;;;;;;2.60;82.36;98089.41;125273;1099;65159;-82
2020/12/07 07:35:23;;;;;;;17.07;12.53;;;;;;;2.60;81.89;98087.63;124922;1098;65153;-82
2020/12/07 07:37:50;;;;;;;15.08;11.73;;;;;;;2.63;82.47;98078.73;125375;1098;65128;-82
2020/12/07 07:40:19;;;;;;;15.57;11.80;;;;;;;2.66;82.25;98081.23;125229;1099;65236;-84
2020/12/07 07:42:54;;;;;;;14.70;11.10;;;;;;;2.67;82.00;98079.45;125375;1098;65121;-83
2020/12/07 07:45:41;;;;;;;19.23;11.30;;;;;;;2.69;81.85;98080.23;125316;1098;66340;-83
2020/12/07 07:48:19;;;;;;;16.93;13.00;;;;;;;2.71;81.53;98091.52;125165;1098;65216;-84
2020/12/07 08:15:55;;;;;;;15.00;12.10;;;;;;;2.85;81.06;98095.17;125299;1098;65127;-82
2020/12/07 08:18:36;;;;;;;14.33;11.33;;;;;;;2.84;81.10;98092.60;125291;1098;65175;-83
2020/12/07 08:21:03;;;;;;;15.50;11.47;;;;;;;2.83;80.71;98096.17;124970;1100;65226;-82
2020/12/07 08:23:31;;;;;;;18.37;12.10;;;;;;;2.81;80.68;98090.97;125247;1098;65245;-82
2020/12/07 08:25:59;;;;;;;16.53;11.67;;;;;;;2.82;80.70;98095.33;125243;1098;65325;-83
2020/12/07 08:28:42;;;;;;;17.87;12.17;;;;;;;2.83;80.31;98094.39;124904;1100;65156;-83
2020/12/07 08:31:10;;;;;;;14.90;10.87;;;;;;;2.85;81.03;98100.43;125253;1098;65615;-83
2020/12/07 08:33:38;;;;;;;16.10;12.35;;;;;;;2.88;80.29;98102.06;125246;1099;65141;-83
2020/12/07 08:36:06;;;;;;;15.70;11.47;;;;;;;2.91;80.68;98107.16;125225;1098;65239;-83
2020/12/07 08:38:40;;;;;;;14.47;11.27;;;;;;;2.95;80.22;98105.22;125221;1098;65223;-82
2020/12/07 08:41:11;;;;;;;16.00;12.40;;;;;;;3.03;80.65;98110.97;125224;1098;65179;-83
2020/12/07 08:43:40;;;;;;;17.70;13.20;;;;;;;3.10;80.50;98100.97;125272;1098;65179;-83
2020/12/07 08:46:08;;;;;;;17.90;13.90;;;;;;;3.16;80.35;98109.42;125234;1098;65130;-82
2020/12/07 08:48:36;;;;;;;18.80;14.53;;;;;;;3.17;79.76;98105.84;124943;1099;65173;-83
2020/12/07 08:51:02;;;;;;;18.57;13.23;;;;;;;3.20;79.72;98107.47;125253;1098;65194;-83
2020/12/07 08:53:29;;;;;;;18.57;13.90;;;;;;;3.23;79.71;98109.94;124859;1099;65134;-82
2020/12/07 08:55:55;;;;;;;15.10;12.40;;;;;;;3.27;79.66;98103.59;125304;1099;65130;-82
2020/12/07 08:58:22;;;;;;;20.80;14.53;;;;;;;3.33;79.48;98099.80;125253;1099;65147;-82
2020/12/07 09:00:49;;;;;;;20.07;15.30;;;;;;;3.34;79.63;98104.96;125240;1098;65313;-80
2020/12/07 09:03:15;;;;;;;21.90;15.83;;;;;;;3.35;79.56;98113.73;125207;1099;65168;-79
2020/12/07 09:05:42;;;;;;;22.97;14.20;;;;;;;3.37;79.60;98101.31;125145;1098;65202;-80
2020/12/07 09:08:09;;;;;;;20.33;14.93;;;;;;;3.38;79.75;98109.16;125237;1099;65587;-79
2020/12/07 09:10:36;;;;;;;19.13;13.63;;;;;;;3.41;79.02;98114.25;124874;1100;65185;-80
2020/12/07 09:13:04;;;;;;;19.63;13.83;;;;;;;3.44;79.21;98116.72;124782;1100;65221;-82
2020/12/07 09:15:31;;;;;;;19.27;13.47;;;;;;;3.49;79.17;98124.39;125192;1099;65159;-80
2020/12/07 09:17:58;;;;;;;15.27;10.97;;;;;;;3.53;79.07;98147.02;125280;1098;65594;-79
2020/12/07 09:20:25;;;;;;;15.90;11.07;;;;;;;3.54;79.22;98129.43;125148;1098;65258;-79
2020/12/07 09:22:51;;;;;;;12.67;10.47;;;;;;;3.58;79.11;98133.59;125168;1098;65120;-80
2020/12/07 09:25:18;;;;;;;15.13;10.83;;;;;;;3.59;78.29;98128.25;125182;1098;65217;-80
2020/12/07 09:27:44;;;;;;;17.57;11.80;;;;;;;3.61;79.37;98129.03;125178;1098;65213;-80
2020/12/07 09:30:11;;;;;;;15.10;11.80;;;;;;;3.62;78.61;98122.81;125180;1098;65226;-79
2020/12/07 09:32:38;;;;;;;14.60;12.47;;;;;;;3.60;78.67;98121.19;125192;1098;65282;-80
2020/12/07 09:35:06;;;;;;;14.70;12.10;;;;;;;3.58;78.74;98128.32;125143;1098;65148;-80
2020/12/07 09:37:34;;;;;;;15.77;10.63;;;;;;;3.56;78.61;98127.58;125240;1098;65175;-80
2020/12/07 09:40:01;;;;;;;15.30;11.77;;;;;;;3.56;78.15;98119.67;125144;1098;65188;-80
2020/12/07 09:42:28;;;;;;;17.53;13.10;;;;;;;3.55;78.59;98123.22;125138;1098;65591;-79
2020/12/07 09:44:54;;;;;;;17.70;12.87;;;;;;;3.53;79.01;98115.41;125158;1098;65224;-80
2020/12/07 09:47:21;;;;;;;15.90;12.35;;;;;;;3.50;78.51;98116.42;125256;1098;65149;-79
2020/12/07 09:49:48;;;;;;;14.77;11.37;;;;;;;3.50;78.46;98107.64;125131;1099;65240;-80
2020/12/07 09:52:15;;;;;;;13.20;11.37;;;;;;;3.50;78.58;98116.42;124799;1098;65143;-80
2020/12/07 09:54:41;;;;;;;15.87;11.70;;;;;;;3.53;78.37;98118.05;124813;1100;65233;-80
2020/12/07 09:57:07;;;;;;;16.80;12.83;;;;;;;3.52;78.49;98108.42;125169;1099;65156;-80
2020/12/07 09:59:35;;;;;;;18.13;12.67;;;;;;;3.52;77.90;98118.96;125160;1098;66332;-80
2020/12/07 10:02:02;;;;;;;16.77;13.73;;;;;;;3.50;78.28;98107.64;125219;1099;65200;-80
2020/12/07 10:04:29;;;;;;;16.63;12.10;;;;;;;3.51;77.94;98104.95;125200;1098;65175;-79
2020/12/07 10:06:56;;;;;;;16.27;13.40;;;;;;;3.52;78.12;98117.17;125134;1098;65246;-79
2020/12/07 10:09:22;;;;;;;17.93;13.47;;;;;;;3.52;77.50;98111.91;125178;1098;65173;-80
2020/12/07 10:11:50;;;;;;;20.60;14.30;;;;;;;3.54;78.21;98109.20;125166;1098;65186;-80
2020/12/07 10:14:16;;;;;;;17.17;13.13;;;;;;;3.54;77.90;98103.94;125201;1098;65192;-80
2020/12/07 10:16:43;;;;;;;16.43;13.77;;;;;;;3.58;78.03;98115.14;125165;1098;65317;-80
2020/12/07 10:19:11;;;;;;;16.27;11.63;;;;;;;3.55;77.64;98105.63;125230;1098;65168;-79
2020/12/07 10:21:38;;;;;;;18.23;13.03;;;;;;;3.55;78.14;98120.58;124852;1100;65214;-79
2020/12/07 10:24:04;;;;;;;18.97;13.63;;;;;;;3.58;78.29;98116.02;125141;1098;65262;-81
2020/12/07 10:26:31;;;;;;;19.67;14.30;;;;;;;3.63;78.17;98111.33;125108;1099;65191;-80
2020/12/07 10:28:58;;;;;;;18.33;13.47;;;;;;;3.66;78.19;98115.59;125277;1099;65150;-80
2020/12/07 10:31:24;;;;;;;17.90;13.15;;;;;;;3.69;77.75;98123.36;125262;1098;65121;-79
2020/12/07 10:33:52;;;;;;;18.63;13.70;;;;;;;3.73;77.78;98112.55;124837;1099;65130;-79
2020/12/07 10:36:20;;;;;;;19.85;15.95;;;;;;;3.79;77.50;98118.42;125239;1098;65223;-79
2020/12/07 10:38:48;;;;;;;35.20;21.17;;;;;;;3.80;77.62;98113.09;125209;1098;65138;-80
2020/12/07 10:41:15;;;;;;;26.93;18.57;;;;;;;3.86;77.50;98088.19;125277;1098;65171;-80
2020/12/07 10:43:43;;;;;;;22.50;14.93;;;;;;;3.88;77.51;98110.89;124819;1099;65236;-80
2020/12/07 10:46:13;;;;;;;19.33;14.93;;;;;;;3.89;77.42;98117.00;125146;1098;65169;-80
2020/12/07 10:48:40;;;;;;;23.27;20.17;;;;;;;3.88;76.94;98121.43;124846;1099;65147;-80
2020/12/07 10:51:11;;;;;;;17.73;13.87;;;;;;;3.92;77.11;98114.20;124801;1100;65246;-80
2020/12/07 10:53:38;;;;;;;18.35;15.70;;;;;;;3.99;77.09;98125.28;125187;1098;65181;-78
2020/12/07 10:56:09;;;;;;;18.67;14.17;;;;;;;4.06;77.24;98114.31;125216;1098;65168;-78
2020/12/07 10:58:39;;;;;;;18.87;14.00;;;;;;;4.11;76.85;98120.19;125236;1098;65189;-78
2020/12/07 11:01:06;;;;;;;19.27;15.90;;;;;;;4.19;77.38;98122.41;125198;1098;65229;-78
2020/12/07 11:03:33;;;;;;;18.70;14.20;;;;;;;4.26;76.89;98123.75;124771;1098;65271;-78
2020/12/07 11:06:13;;;;;;;17.30;13.23;;;;;;;4.30;77.13;98120.02;125305;1098;65175;-78
2020/12/07 11:08:54;;;;;;;18.63;14.10;;;;;;;4.36;77.31;98124.94;124831;1098;65233;-78
2020/12/07 11:11:22;;;;;;;18.90;14.70;;;;;;;4.44;76.91;98121.03;125177;1098;65223;-78
2020/12/07 11:13:49;;;;;;;19.30;15.03;;;;;;;4.46;76.40;98132.36;125141;1098;65149;-77
2020/12/07 11:16:16;;;;;;;21.15;14.80;;;;;;;4.48;76.38;98119.94;125175;1098;65229;-78
2020/12/07 11:18:43;;;;;;;16.70;13.35;;;;;;;4.46;76.27;98120.02;125301;1098;65169;-77
2020/12/07 11:21:15;;;;;;;16.80;13.60;;;;;;;4.50;76.71;98131.23;125246;1098;65175;-78
2020/12/07 11:23:46;;;;;;;18.77;14.47;;;;;;;4.56;76.26;98120.36;125196;1098;65223;-78
2020/12/07 11:26:18;;;;;;;19.17;14.03;;;;;;;4.61;75.87;98127.07;124882;1098;65169;-78
2020/12/07 11:28:46;;;;;;;17.40;14.30;;;;;;;4.65;76.18;98124.25;125195;1098;65297;-78
2020/12/07 11:31:15;;;;;;;19.80;14.90;;;;;;;4.69;76.58;98126.64;125152;1098;65176;-79
2020/12/07 11:33:42;;;;;;;17.37;13.97;;;;;;;4.74;76.39;98137.78;125199;1098;65150;-79
2020/12/07 11:36:08;;;;;;;18.47;14.33;;;;;;;4.78;76.47;98126.09;125269;1098;65653;-78
2020/12/07 11:38:43;;;;;;;19.53;14.60;;;;;;;4.82;76.21;98117.08;125179;1098;65172;-78
2020/12/07 11:41:24;;;;;;;18.77;14.67;;;;;;;4.86;76.02;98112.45;125224;1098;65249;-78
2020/12/07 11:44:06;;;;;;;20.85;14.55;;;;;;;4.86;75.62;98104.54;125255;1098;65252;-79
2020/12/07 11:46:46;;;;;;;18.87;14.53;;;;;;;4.83;75.53;98107.36;125143;1099;65130;-78
2020/12/07 11:49:13;;;;;;;24.20;15.97;;;;;;;4.82;75.44;98105.67;125265;1098;65152;-80
2020/12/07 11:51:39;;;;;;;20.33;14.63;;;;;;;4.78;75.77;98107.62;125184;1099;65192;-80
2020/12/07 11:54:06;;;;;;;19.33;15.10;;;;;;;4.83;75.82;98105.56;125237;1098;65150;-80